Time;durP1;ratioP1;P1;durP2;ratioP2;P2;SDS_P1;SDS_P2;PMS_P1;PMS_P2;Temp;Humidity;BMP_temperature;BMP_pressure;BME280_temperature;BME280_humidity;BME280_pressure;Samples;Min_cycle;Max_cycle;Signal;HPM_P1;HPM_P2
2024/03/12 00:01:26;;;;;;;6.63;2.80;;;;;;;-141.50;100.00;63355.56;5029735;28;20065;-81
2024/03/12 00:03:54;;;;;;;7.15;2.40;;;;;;;-141.50;100.00;63355.56;5020509;28;20108;-81
2024/03/12 00:06:22;;;;;;;5.20;2.63;;;;;;;-141.50;100.00;63355.56;5016821;28;20436;-80
2024/03/12 00:08:49;;;;;;;6.45;3.05;;;;;;;-141.50;100.00;63355.56;5022191;28;20145;-83
2024/03/12 00:11:16;;;;;;;5.53;2.92;;;;;;;-141.50;100.00;63355.56;5020487;28;20053;-81
2024/03/12 00:13:43;;;;;;;5.50;2.60;;;;;;;-141.50;100.00;63355.56;5024666;28;20061;-82
2024/03/12 00:16:09;;;;;;;10.48;3.17;;;;;;;-141.50;100.00;63355.56;5022721;28;20053;-84
2024/03/12 00:18:37;;;;;;;7.68;3.00;;;;;;;-141.50;100.00;63355.56;5017321;28;20144;-82
2024/03/12 00:21:05;;;;;;;6.65;2.80;;;;;;;-141.50;100.00;63355.56;5024691;28;20514;-79
2024/03/12 00:23:32;;;;;;;5.95;2.92;;;;;;;-141.50;100.00;63355.56;5017579;28;20058;-84
2024/03/12 00:25:59;;;;;;;4.82;2.70;;;;;;;-141.50;100.00;63355.56;5022044;28;20085;-82
2024/03/12 00:28:26;;;;;;;6.32;2.78;;;;;;;-141.50;100.00;63355.56;5024237;28;20077;-82
2024/03/12 00:30:53;;;;;;;6.22;2.53;;;;;;;-141.50;100.00;63355.56;5021808;28;20053;-81
2024/03/12 00:33:21;;;;;;;7.97;3.00;;;;;;;-141.50;100.00;63355.56;5008808;28;20064;-82
2024/03/12 00:35:47;;;;;;;6.72;2.80;;;;;;;-141.50;100.00;63355.56;5019649;28;20397;-83
2024/03/12 00:38:17;;;;;;;8.00;3.13;;;;;;;-141.50;100.00;63355.56;5023917;28;20053;-81
2024/03/12 00:40:45;;;;;;;7.43;3.42;;;;;;;-141.50;100.00;63355.56;5020167;28;20073;-81
2024/03/12 00:43:12;;;;;;;8.13;3.28;;;;;;;-141.50;100.00;63355.56;5026937;28;20520;-83
2024/03/12 00:45:41;;;;;;;8.35;3.35;;;;;;;-141.50;100.00;63355.56;5028044;28;20053;-83
2024/03/12 00:48:10;;;;;;;7.78;3.50;;;;;;;-141.50;100.00;63355.56;5030240;28;20057;-82
2024/03/12 00:50:38;;;;;;;4.65;2.85;;;;;;;-141.50;100.00;63355.56;5031301;28;20084;-81
2024/03/12 00:53:05;;;;;;;8.18;3.70;;;;;;;-141.50;100.00;63355.56;5030748;28;20046;-83
2024/03/12 00:55:32;;;;;;;7.07;3.42;;;;;;;-141.50;100.00;63355.56;5024730;28;20087;-84
2024/03/12 00:57:59;;;;;;;7.28;3.42;;;;;;;-141.50;100.00;63355.56;5008412;28;20132;-82
2024/03/12 01:00:28;;;;;;;7.57;3.25;;;;;;;-141.50;100.00;63355.56;5023353;28;20049;-82
2024/03/12 01:02:58;;;;;;;5.72;3.28;;;;;;;-141.50;100.00;63355.56;5026043;28;20073;-82
2024/03/12 01:05:30;;;;;;;7.40;2.72;;;;;;;-141.50;100.00;63355.56;5015047;28;20064;-83
2024/03/12 01:08:00;;;;;;;8.15;3.13;;;;;;;-141.50;100.00;63355.56;5028654;28;20515;-83
2024/03/12 01:10:28;;;;;;;6.25;3.03;;;;;;;-141.50;100.00;63355.56;5017367;28;20124;-82
2024/03/12 01:12:56;;;;;;;7.75;3.03;;;;;;;-141.50;100.00;63355.56;5029072;28;20061;-83
2024/03/12 01:15:24;;;;;;;6.07;2.85;;;;;;;-141.50;100.00;63355.56;5019014;28;20527;-82
2024/03/12 01:17:56;;;;;;;6.85;2.75;;;;;;;-141.50;100.00;63355.56;5019649;28;20109;-83
2024/03/12 01:20:24;;;;;;;5.55;3.13;;;;;;;-141.50;100.00;63355.56;5014769;28;20416;-83
2024/03/12 01:22:54;;;;;;;5.32;3.10;;;;;;;-141.50;100.00;63355.56;5001626;28;20057;-81
2024/03/12 01:25:22;;;;;;;5.57;2.95;;;;;;;-141.50;100.00;63355.56;5025214;28;20114;-83
2024/03/12 01:27:52;;;;;;;5.85;2.78;;;;;;;-141.50;100.00;63355.56;4989375;28;20080;-84
2024/03/12 01:30:20;;;;;;;6.65;3.10;;;;;;;-141.50;100.00;63355.56;5009507;28;20148;-82
2024/03/12 01:32:51;;;;;;;6.40;3.10;;;;;;;-141.50;100.00;63355.56;5031641;28;20053;-83
2024/03/12 01:35:20;;;;;;;6.40;2.97;;;;;;;-141.50;100.00;63355.56;5000539;28;20045;-82
2024/03/12 01:37:51;;;;;;;7.18;3.10;;;;;;;-141.50;100.00;63355.56;5024958;28;20053;-80
2024/03/12 01:40:21;;;;;;;6.38;3.10;;;;;;;-141.50;100.00;63355.56;5016645;28;20866;-83
2024/03/12 01:43:03;;;;;;;10.57;3.42;;;;;;;-141.50;100.00;63355.56;5019369;28;20054;-83
2024/03/12 01:45:32;;;;;;;6.05;3.20;;;;;;;-141.50;100.00;63355.56;5028639;28;20053;-81
2024/03/12 01:48:09;;;;;;;5.35;3.05;;;;;;;-141.50;100.00;63355.56;5032619;28;20049;-82
2024/03/12 01:50:41;;;;;;;9.27;3.75;;;;;;;-141.50;100.00;63355.56;5020078;28;20791;-82
2024/03/12 01:53:09;;;;;;;8.13;3.20;;;;;;;-141.50;100.00;63355.56;5028302;28;20069;-82
2024/03/12 01:55:40;;;;;;;5.78;3.03;;;;;;;-141.50;100.00;63355.56;5026791;28;20464;-82
2024/03/12 01:58:14;;;;;;;8.52;3.85;;;;;;;-141.50;100.00;63355.56;5020080;28;20231;-83
2024/03/12 02:00:42;;;;;;;8.68;3.65;;;;;;;-141.50;100.00;63355.56;4982617;28;20061;-82
2024/03/12 02:03:11;;;;;;;8.18;3.35;;;;;;;-141.50;100.00;63355.56;5010986;28;20048;-85
2024/03/12 02:05:40;;;;;;;7.55;3.58;;;;;;;-141.50;100.00;63355.56;5020964;28;20140;-82
2024/03/12 02:08:08;;;;;;;9.68;3.58;;;;;;;-141.50;100.00;63355.56;5021169;28;20071;-83
2024/03/12 02:10:34;;;;;;;8.15;3.80;;;;;;;-141.50;100.00;63355.56;5032280;28;20589;-82
2024/03/12 02:13:01;;;;;;;10.73;3.88;;;;;;;-141.50;100.00;63355.56;5024537;28;20104;-80
2024/03/12 02:15:28;;;;;;;8.98;3.17;;;;;;;-141.50;100.00;63355.56;5025387;28;20068;-82
2024/03/12 02:17:56;;;;;;;5.50;3.30;;;;;;;-141.50;100.00;63355.56;5028124;28;20320;-82
2024/03/12 02:20:22;;;;;;;10.43;3.55;;;;;;;-141.50;100.00;63355.56;5028889;28;20045;-83
2024/03/12 02:22:53;;;;;;;7.25;3.55;;;;;;;-141.50;100.00;63355.56;5021078;28;20402;-82
2024/03/12 02:25:22;;;;;;;7.20;3.65;;;;;;;-141.50;100.00;63355.56;5019629;28;20053;-81
2024/03/12 02:27:50;;;;;;;7.78;3.92;;;;;;;-141.50;100.00;63355.56;5026928;28;20522;-81
2024/03/12 02:30:17;;;;;;;7.28;3.60;;;;;;;-141.50;100.00;63355.56;5019831;28;20243;-79
2024/03/12 02:32:46;;;;;;;7.35;3.30;;;;;;;-141.50;100.00;63355.56;5021468;28;20084;-82
2024/03/12 02:35:15;;;;;;;7.07;3.60;;;;;;;-141.50;100.00;63355.56;5011164;28;20038;-82
2024/03/12 02:37:43;;;;;;;8.85;3.35;;;;;;;-141.50;100.00;63355.56;5010006;28;20143;-80
2024/03/12 02:40:12;;;;;;;9.20;3.58;;;;;;;-141.50;100.00;63355.56;5031131;28;20045;-81
2024/03/12 02:42:41;;;;;;;7.30;3.60;;;;;;;-141.50;100.00;63355.56;5037752;28;20117;-81
2024/03/12 02:45:14;;;;;;;6.75;3.45;;;;;;;-141.50;100.00;63355.56;5040384;28;20053;-79
2024/03/12 02:47:43;;;;;;;7.55;3.35;;;;;;;-141.50;100.00;63355.56;5014293;28;20189;-81
2024/03/12 02:50:10;;;;;;;6.88;3.67;;;;;;;-141.50;100.00;63355.56;5021322;28;20045;-82
2024/03/12 02:52:37;;;;;;;5.45;3.05;;;;;;;-141.50;100.00;63355.56;5027366;28;20030;-81
2024/03/12 02:55:06;;;;;;;6.90;3.50;;;;;;;-141.50;100.00;63355.56;5022627;28;20492;-82
2024/03/12 02:57:33;;;;;;;8.50;3.78;;;;;;;-141.50;100.00;63355.56;5022728;28;20049;-81
2024/03/12 03:00:00;;;;;;;7.47;4.15;;;;;;;-141.50;100.00;63355.56;5026482;28;20103;-82
2024/03/12 03:02:29;;;;;;;9.25;3.28;;;;;;;-141.50;100.00;63355.56;5022214;28;20523;-81
2024/03/12 03:04:55;;;;;;;9.15;3.80;;;;;;;-141.50;100.00;63355.56;5023079;28;20061;-81
2024/03/12 03:07:26;;;;;;;6.97;3.42;;;;;;;-141.50;100.00;63355.56;5028030;28;20570;-82
2024/03/12 03:09:54;;;;;;;6.80;3.88;;;;;;;-141.50;100.00;63355.56;5026517;28;20092;-81
2024/03/12 03:12:21;;;;;;;12.02;4.05;;;;;;;-141.50;100.00;63355.56;5021430;28;20044;-82
2024/03/12 03:14:47;;;;;;;8.65;3.78;;;;;;;-141.50;100.00;63355.56;5013394;28;20046;-80
2024/03/12 03:17:14;;;;;;;9.93;4.25;;;;;;;-141.50;100.00;63355.56;5026605;28;20401;-82
2024/03/12 03:19:41;;;;;;;9.73;4.25;;;;;;;-141.50;100.00;63355.56;5018239;28;20506;-81
2024/03/12 03:22:09;;;;;;;10.13;4.47;;;;;;;-141.50;100.00;63355.56;5012137;28;20064;-83
2024/03/12 03:24:37;;;;;;;7.95;3.90;;;;;;;-141.50;100.00;63355.56;5022937;28;20068;-82
2024/03/12 03:27:05;;;;;;;7.00;3.95;;;;;;;-141.50;100.00;63355.56;5020721;28;20072;-80
2024/03/12 03:29:35;;;;;;;9.30;4.03;;;;;;;-141.50;100.00;63355.56;5024181;28;20142;-82
2024/03/12 03:32:06;;;;;;;7.70;4.10;;;;;;;-141.50;100.00;63355.56;5025024;28;20052;-80
2024/03/12 03:34:33;;;;;;;8.10;4.20;;;;;;;-141.50;100.00;63355.56;5020595;28;20049;-82
2024/03/12 03:37:00;;;;;;;8.90;4.07;;;;;;;-141.50;100.00;63355.56;5024917;28;20117;-82
2024/03/12 03:39:30;;;;;;;10.18;4.03;;;;;;;-141.50;100.00;63355.56;5026853;28;20053;-81
2024/03/12 03:41:57;;;;;;;6.68;3.30;;;;;;;-141.50;100.00;63355.56;5012146;28;20069;-81
2024/03/12 03:44:24;;;;;;;8.90;4.15;;;;;;;-141.50;100.00;63355.56;5026165;28;20045;-83
2024/03/12 03:46:51;;;;;;;6.90;4.22;;;;;;;-141.50;100.00;63355.56;5023785;28;20459;-81
2024/03/12 03:49:17;;;;;;;9.07;4.00;;;;;;;-141.50;100.00;63355.56;5018017;28;20073;-81
2024/03/12 03:51:45;;;;;;;7.97;3.97;;;;;;;-141.50;100.00;63355.56;5022844;28;20572;-79
2024/03/12 03:54:12;;;;;;;8.88;3.85;;;;;;;-141.50;100.00;63355.56;5028198;28;20093;-81
2024/03/12 03:56:39;;;;;;;8.00;3.65;;;;;;;-141.50;100.00;63355.56;5030791;28;20056;-81
2024/03/12 03:59:06;;;;;;;8.00;3.92;;;;;;;-141.50;100.00;63355.56;5028179;28;20052;-81
2024/03/12 04:01:33;;;;;;;9.18;4.28;;;;;;;-141.50;100.00;63355.56;5020845;28;20034;-80
2024/03/12 04:04:10;;;;;;;6.43;3.70;;;;;;;-141.50;100.00;63355.56;5011168;28;20049;-81
2024/03/12 04:06:39;;;;;;;7.22;3.78;;;;;;;-141.50;100.00;63355.56;5021705;28;20045;-80
2024/03/12 04:09:07;;;;;;;10.07;3.83;;;;;;;-141.50;100.00;63355.56;5020352;28;20112;-82
2024/03/12 04:11:34;;;;;;;7.35;4.05;;;;;;;-141.50;100.00;63355.56;5019917;28;20061;-81
2024/03/12 04:14:02;;;;;;;12.57;3.70;;;;;;;-141.50;100.00;63355.56;5014097;28;20058;-80
2024/03/12 04:16:33;;;;;;;6.82;3.50;;;;;;;-141.50;100.00;63355.56;5014024;28;20566;-81
2024/03/12 04:18:59;;;;;;;5.63;3.45;;;;;;;-141.50;100.00;63355.56;5020070;28;20085;-80
2024/03/12 04:21:27;;;;;;;6.13;3.78;;;;;;;-141.50;100.00;63355.56;5025705;28;20049;-80
2024/03/12 04:23:53;;;;;;;7.03;3.63;;;;;;;-141.50;100.00;63355.56;5021025;28;20046;-79
2024/03/12 04:26:21;;;;;;;6.40;3.40;;;;;;;-141.50;100.00;63355.56;5024484;28;20061;-82
2024/03/12 04:28:48;;;;;;;8.43;3.88;;;;;;;-141.50;100.00;63355.56;5017953;28;20046;-80
2024/03/12 04:31:15;;;;;;;8.18;4.00;;;;;;;-141.50;100.00;63355.56;5016228;28;20087;-80
2024/03/12 04:33:42;;;;;;;9.25;3.95;;;;;;;-141.50;100.00;63355.56;5029326;28;20058;-80
2024/03/12 04:36:13;;;;;;;7.85;3.80;;;;;;;-141.50;100.00;63355.56;5022455;28;20058;-80
2024/03/12 04:38:40;;;;;;;7.70;3.50;;;;;;;-141.50;100.00;63355.56;5024978;28;20058;-79
2024/03/12 04:41:09;;;;;;;7.97;3.72;;;;;;;-141.50;100.00;63355.56;5035897;28;20057;-79
2024/03/12 04:43:36;;;;;;;6.20;3.60;;;;;;;-141.50;100.00;63355.56;5038419;28;20100;-79
2024/03/12 04:46:03;;;;;;;7.05;3.85;;;;;;;-141.50;100.00;63355.56;5020634;28;20066;-82
2024/03/12 04:48:31;;;;;;;9.55;3.65;;;;;;;-141.50;100.00;63355.56;5024706;28;20133;-80
2024/03/12 04:50:58;;;;;;;7.63;3.78;;;;;;;-141.50;100.00;63355.56;5020704;28;20089;-81
2024/03/12 04:53:35;;;;;;;8.77;3.95;;;;;;;-141.50;100.00;63355.56;5025248;28;20117;-79
2024/03/12 04:56:02;;;;;;;8.63;4.30;;;;;;;-141.50;100.00;63355.56;5016545;28;20049;-81
2024/03/12 04:58:29;;;;;;;6.60;3.72;;;;;;;-141.50;100.00;63355.56;5031644;28;20137;-80
2024/03/12 05:00:56;;;;;;;8.55;3.67;;;;;;;-141.50;100.00;63355.56;5006571;28;20395;-82
2024/03/12 05:03:28;;;;;;;7.63;3.65;;;;;;;-141.50;100.00;63355.56;5026259;28;20053;-81
2024/03/12 05:05:57;;;;;;;6.90;3.88;;;;;;;-141.50;100.00;63355.56;5023342;28;20140;-79
2024/03/12 05:08:24;;;;;;;8.10;3.70;;;;;;;-141.50;100.00;63355.56;5024424;28;20042;-80
2024/03/12 05:10:50;;;;;;;6.95;3.40;;;;;;;-141.50;100.00;63355.56;5015968;28;20509;-78
2024/03/12 05:13:21;;;;;;;6.88;3.20;;;;;;;-141.50;100.00;63355.56;5017706;28;20133;-78
2024/03/12 05:15:48;;;;;;;7.65;3.67;;;;;;;-141.50;100.00;63355.56;5004060;28;20076;-82
2024/03/12 05:18:15;;;;;;;8.18;3.28;;;;;;;-141.50;100.00;63355.56;5021761;28;20062;-80
2024/03/12 05:20:41;;;;;;;7.15;3.03;;;;;;;-141.50;100.00;63355.56;5024390;28;20050;-81
2024/03/12 05:23:10;;;;;;;6.13;3.25;;;;;;;-141.50;100.00;63355.56;5000076;28;20068;-80
2024/03/12 05:25:41;;;;;;;7.60;3.70;;;;;;;-141.50;100.00;63355.56;5026999;28;20061;-82
2024/03/12 05:28:09;;;;;;;6.72;3.58;;;;;;;-141.50;100.00;63355.56;5023569;28;20054;-80
2024/03/12 05:30:37;;;;;;;6.82;3.20;;;;;;;-141.50;100.00;63355.56;5013713;28;20049;-81
2024/03/12 05:33:07;;;;;;;4.82;2.70;;;;;;;-141.50;100.00;63355.56;5026267;28;20095;-79
2024/03/12 05:35:34;;;;;;;6.18;3.35;;;;;;;-141.50;100.00;63355.56;5024122;28;20049;-80
2024/03/12 05:38:44;;;;;;;6.30;3.20;;;;;;;-141.50;100.00;63355.56;5024276;28;20873;-79
2024/03/12 05:41:04;;;;;;;5.07;2.97;;;;;;;-141.50;100.00;63355.56;5000416;28;20347;-80
2024/03/12 05:49:02;;;;;;;4.80;2.72;;;;;;;-141.50;100.00;63355.56;5018509;28;20099;-81
2024/03/12 05:51:31;;;;;;;5.93;3.00;;;;;;;-141.50;100.00;63355.56;5022798;28;20077;-82
2024/03/12 05:54:00;;;;;;;7.78;3.00;;;;;;;-141.50;100.00;63355.56;5015360;28;20056;-80
2024/03/12 05:56:29;;;;;;;4.78;2.90;;;;;;;-141.50;100.00;63355.56;5013321;28;20101;-79
2024/03/12 05:58:56;;;;;;;5.13;2.83;;;;;;;-141.50;100.00;63355.56;5001618;28;20077;-80
2024/03/12 06:01:24;;;;;;;6.85;3.08;;;;;;;-141.50;100.00;63355.56;5016985;28;20064;-79
2024/03/12 06:03:52;;;;;;;4.90;2.78;;;;;;;-141.50;100.00;63355.56;5015349;28;20049;-80
2024/03/12 06:06:21;;;;;;;6.60;3.20;;;;;;;-141.50;100.00;63355.56;5027103;28;20061;-81
2024/03/12 06:08:48;;;;;;;8.25;3.70;;;;;;;-141.50;100.00;63355.56;5026164;28;20084;-81
2024/03/12 06:11:16;;;;;;;7.35;3.72;;;;;;;-141.50;100.00;63355.56;5021499;28;20062;-81
2024/03/12 06:13:43;;;;;;;7.63;3.22;;;;;;;-141.50;100.00;63355.56;5018026;28;20049;-81
2024/03/12 06:16:11;;;;;;;9.48;3.67;;;;;;;-141.50;100.00;63355.56;5022665;28;20488;-81
2024/03/12 06:18:40;;;;;;;5.43;3.17;;;;;;;-141.50;100.00;63355.56;5021883;28;20060;-81
2024/03/12 06:21:07;;;;;;;5.20;2.95;;;;;;;-141.50;100.00;63355.56;5019712;28;20115;-82
2024/03/12 06:23:34;;;;;;;6.03;3.28;;;;;;;-141.50;100.00;63355.56;5024288;28;20152;-82
2024/03/12 06:26:02;;;;;;;9.38;3.15;;;;;;;-141.50;100.00;63355.56;5025938;28;20103;-81
2024/03/12 06:28:31;;;;;;;6.57;3.25;;;;;;;-141.50;100.00;63355.56;5027877;28;20057;-81
2024/03/12 06:30:58;;;;;;;6.43;3.10;;;;;;;-141.50;100.00;63355.56;5009749;28;20054;-80
2024/03/12 06:33:26;;;;;;;6.78;3.10;;;;;;;-141.50;100.00;63355.56;5019996;28;20064;-80
2024/03/12 06:35:53;;;;;;;5.88;3.17;;;;;;;-141.50;100.00;63355.56;5020968;28;20109;-81
2024/03/12 06:38:20;;;;;;;7.72;2.95;;;;;;;-141.50;100.00;63355.56;5017598;28;20078;-80
2024/03/12 06:40:48;;;;;;;8.88;2.67;;;;;;;-141.50;100.00;63355.56;5028114;28;20064;-80
2024/03/12 06:43:17;;;;;;;7.55;2.70;;;;;;;-141.50;100.00;63355.56;5018963;28;20057;-80
2024/03/12 06:45:44;;;;;;;5.65;2.42;;;;;;;-141.50;100.00;63355.56;5019275;28;20053;-80
2024/03/12 06:48:13;;;;;;;8.73;2.97;;;;;;;-141.50;100.00;63355.56;5002809;28;20364;-80
2024/03/12 06:50:41;;;;;;;10.55;2.60;;;;;;;-141.50;100.00;63355.56;5024614;28;20222;-80
2024/03/12 06:53:07;;;;;;;9.15;3.13;;;;;;;-141.50;100.00;63355.56;5020464;28;20060;-79
2024/03/12 06:55:34;;;;;;;6.18;3.13;;;;;;;-141.50;100.00;63355.56;5017126;28;20072;-80
2024/03/12 06:58:07;;;;;;;7.07;2.92;;;;;;;-141.50;100.00;63355.56;5020703;28;20042;-81
2024/03/12 07:00:37;;;;;;;4.72;2.50;;;;;;;-141.50;100.00;63355.56;5029394;28;20053;-81
2024/03/12 07:03:05;;;;;;;5.57;2.92;;;;;;;-141.50;100.00;63355.56;5025740;28;20057;-81
2024/03/12 07:05:43;;;;;;;6.07;2.90;;;;;;;-141.50;100.00;63355.56;4998605;28;20059;-81
2024/03/12 07:08:10;;;;;;;6.70;2.85;;;;;;;-141.50;100.00;63355.56;5040107;28;20346;-82
2024/03/12 07:10:40;;;;;;;6.55;2.60;;;;;;;-141.50;100.00;63355.56;5010303;28;20068;-82
2024/03/12 07:13:07;;;;;;;7.03;2.45;;;;;;;-141.50;100.00;63355.56;5027055;28;20281;-82
2024/03/12 07:15:38;;;;;;;6.68;2.83;;;;;;;-141.50;100.00;63355.56;5009201;28;20073;-81
2024/03/12 07:18:07;;;;;;;7.25;2.90;;;;;;;-141.50;100.00;63355.56;5026774;28;20056;-81
2024/03/12 07:20:35;;;;;;;6.63;3.08;;;;;;;-141.50;100.00;63355.56;5018162;28;20103;-80
2024/03/12 07:23:02;;;;;;;6.45;2.70;;;;;;;-141.50;100.00;63355.56;5024292;28;20053;-79
2024/03/12 07:25:32;;;;;;;6.53;2.72;;;;;;;-141.50;100.00;63355.56;5022464;28;20054;-79
2024/03/12 07:28:05;;;;;;;5.47;2.70;;;;;;;-141.50;100.00;63355.56;5019676;28;20121;-80
2024/03/12 07:30:34;;;;;;;8.05;2.90;;;;;;;-141.50;100.00;63355.56;5030494;28;20106;-81
2024/03/12 07:33:03;;;;;;;5.15;2.67;;;;;;;-141.50;100.00;63355.56;5005428;28;20045;-79
2024/03/12 07:35:33;;;;;;;6.10;2.60;;;;;;;-141.50;100.00;63355.56;5013264;28;20061;-80
2024/03/12 07:38:02;;;;;;;8.15;2.88;;;;;;;-141.50;100.00;63355.56;5017371;28;20487;-81
2024/03/12 07:40:34;;;;;;;6.28;2.53;;;;;;;-141.50;100.00;63355.56;5017858;28;20060;-80
2024/03/12 07:43:04;;;;;;;7.15;2.60;;;;;;;-141.50;100.00;63355.56;5011688;28;20049;-81
2024/03/12 07:45:31;;;;;;;9.20;3.05;;;;;;;-141.50;100.00;63355.56;5023370;28;20419;-80
2024/03/12 07:48:01;;;;;;;5.43;2.58;;;;;;;-141.50;100.00;63355.56;5016654;28;20053;-81
2024/03/12 07:50:31;;;;;;;5.05;2.65;;;;;;;-141.50;100.00;63355.56;5001895;28;20112;-81
2024/03/12 07:52:58;;;;;;;6.63;2.45;;;;;;;-141.50;100.00;63355.56;5017276;28;20062;-82
2024/03/12 07:55:25;;;;;;;7.13;2.67;;;;;;;-141.50;100.00;63355.56;5014269;28;20073;-81
2024/03/12 07:57:53;;;;;;;5.10;2.53;;;;;;;-141.50;100.00;63355.56;5017744;28;20138;-82
2024/03/12 08:00:26;;;;;;;5.05;2.53;;;;;;;-141.50;100.00;63355.56;5020327;28;20064;-81
2024/03/12 08:02:52;;;;;;;4.95;2.53;;;;;;;-141.50;100.00;63355.56;5013859;28;20080;-80
2024/03/12 08:05:19;;;;;;;7.57;2.55;;;;;;;-141.50;100.00;63355.56;5017841;28;20057;-80
2024/03/12 08:07:46;;;;;;;4.45;2.33;;;;;;;-141.50;100.00;63355.56;5016529;28;20077;-79
2024/03/12 08:10:12;;;;;;;6.10;2.75;;;;;;;-141.50;100.00;63355.56;4999809;28;20045;-81
2024/03/12 08:12:40;;;;;;;4.82;2.58;;;;;;;-141.50;100.00;63355.56;5000394;28;20054;-80
2024/03/12 08:15:08;;;;;;;6.00;2.83;;;;;;;-141.50;100.00;63355.56;5017830;28;20071;-80
2024/03/12 08:17:37;;;;;;;7.70;2.50;;;;;;;-141.50;100.00;63355.56;5015147;28;20671;-82
2024/03/12 08:20:06;;;;;;;5.22;2.58;;;;;;;-141.50;100.00;63355.56;5000442;28;20068;-80
2024/03/12 08:22:35;;;;;;;4.47;2.50;;;;;;;-141.50;100.00;63355.56;5007780;28;20550;-80
2024/03/12 08:25:03;;;;;;;6.20;2.58;;;;;;;-141.50;100.00;63355.56;5020841;28;20042;-81
2024/03/12 08:27:30;;;;;;;5.70;2.78;;;;;;;-141.50;100.00;63355.56;5028748;28;20573;-82
2024/03/12 08:29:57;;;;;;;9.52;2.80;;;;;;;-141.50;100.00;63355.56;5021360;28;20141;-82
2024/03/12 08:32:24;;;;;;;8.73;2.95;;;;;;;-141.50;100.00;63355.56;5009046;28;20101;-83
2024/03/12 08:34:52;;;;;;;4.47;2.58;;;;;;;-141.50;100.00;63355.56;5020718;28;20058;-81
2024/03/12 08:37:18;;;;;;;5.95;2.60;;;;;;;-141.50;100.00;63355.56;5025069;28;20045;-80
2024/03/12 08:39:46;;;;;;;4.03;2.60;;;;;;;-141.50;100.00;63355.56;5030839;28;20084;-83
2024/03/12 08:42:13;;;;;;;6.40;3.30;;;;;;;-141.50;100.00;63355.56;5026530;28;20117;-82
2024/03/12 08:44:40;;;;;;;7.07;3.00;;;;;;;-141.50;100.00;63355.56;5025097;28;20116;-79
2024/03/12 08:47:08;;;;;;;6.60;3.08;;;;;;;-141.50;100.00;63355.56;5023289;28;20084;-83
2024/03/12 08:49:35;;;;;;;5.28;2.72;;;;;;;-141.50;100.00;63355.56;5023674;28;20107;-81
2024/03/12 08:52:03;;;;;;;6.00;2.80;;;;;;;-141.50;100.00;63355.56;5028392;28;20099;-82
2024/03/12 08:54:31;;;;;;;6.53;3.20;;;;;;;-141.50;100.00;63355.56;5024904;28;20522;-82
2024/03/12 08:56:58;;;;;;;7.68;2.97;;;;;;;-141.50;100.00;63355.56;5025010;28;20049;-82
2024/03/12 08:59:25;;;;;;;9.55;3.10;;;;;;;-141.50;100.00;63355.56;5024620;28;20466;-82
2024/03/12 09:01:57;;;;;;;7.95;3.15;;;;;;;-141.50;100.00;63355.56;5019807;28;20045;-82
2024/03/12 09:04:27;;;;;;;6.97;3.30;;;;;;;-141.50;100.00;63355.56;5020285;28;20469;-82
2024/03/12 09:06:54;;;;;;;8.95;3.53;;;;;;;-141.50;100.00;63355.56;5027635;28;20515;-82
2024/03/12 09:09:21;;;;;;;5.90;3.15;;;;;;;-141.50;100.00;63355.56;5019111;28;20507;-81
2024/03/12 09:11:48;;;;;;;7.15;3.67;;;;;;;-141.50;100.00;63355.56;5011613;28;20054;-81
2024/03/12 09:14:15;;;;;;;8.57;3.47;;;;;;;-141.50;100.00;63355.56;5029739;28;20064;-82
2024/03/12 09:16:42;;;;;;;6.30;3.38;;;;;;;-141.50;100.00;63355.56;5028141;28;20064;-83
2024/03/12 09:19:09;;;;;;;5.43;3.20;;;;;;;-141.50;100.00;63355.56;5033397;28;20117;-81
2024/03/12 09:21:37;;;;;;;7.68;3.25;;;;;;;-141.50;100.00;63355.56;5030574;28;20060;-81
2024/03/12 09:24:05;;;;;;;7.78;3.85;;;;;;;-141.50;100.00;63355.56;5023032;28;20060;-82
2024/03/12 09:26:33;;;;;;;6.90;3.58;;;;;;;-141.50;100.00;63355.56;5032902;28;20069;-82
2024/03/12 09:29:00;;;;;;;6.18;3.25;;;;;;;-141.50;100.00;63355.56;5032622;28;20058;-81
2024/03/12 09:31:27;;;;;;;8.15;3.85;;;;;;;-141.50;100.00;63355.56;5032199;28;20049;-81
2024/03/12 09:33:55;;;;;;;7.38;3.47;;;;;;;-141.50;100.00;63355.56;5035843;28;20061;-82
2024/03/12 09:36:24;;;;;;;6.82;3.15;;;;;;;-141.50;100.00;63355.56;5031440;28;20054;-82
2024/03/12 09:38:51;;;;;;;8.13;3.60;;;;;;;-141.50;100.00;63355.56;5030415;28;20552;-81
2024/03/12 09:41:22;;;;;;;8.27;3.65;;;;;;;-141.50;100.00;63355.56;5007483;28;20130;-79
2024/03/12 09:43:51;;;;;;;6.32;3.28;;;;;;;-141.50;100.00;63355.56;5031823;28;20060;-80
2024/03/12 09:46:18;;;;;;;6.80;3.40;;;;;;;-141.50;100.00;63355.56;5026431;28;20527;-80
2024/03/12 09:48:46;;;;;;;6.72;3.58;;;;;;;-141.50;100.00;63355.56;5022544;28;20061;-81
2024/03/12 09:51:13;;;;;;;7.80;3.50;;;;;;;-141.50;100.00;63355.56;5021187;28;20037;-80
2024/03/12 09:53:42;;;;;;;8.20;3.65;;;;;;;-141.50;100.00;63355.56;5028366;28;20141;-81
2024/03/12 09:56:10;;;;;;;6.75;3.20;;;;;;;-141.50;100.00;63355.56;5028606;28;20583;-81
2024/03/12 09:58:38;;;;;;;5.18;3.10;;;;;;;-141.50;100.00;63355.56;5031924;28;20087;-82
2024/03/12 10:01:06;;;;;;;5.90;3.08;;;;;;;-141.50;100.00;63355.56;5026336;28;20398;-81
2024/03/12 10:03:36;;;;;;;8.65;3.72;;;;;;;-141.50;100.00;63355.56;5027593;28;20050;-81
2024/03/12 10:06:05;;;;;;;6.32;3.20;;;;;;;-141.50;100.00;63355.56;5026531;28;20041;-82
2024/03/12 10:08:34;;;;;;;8.88;3.45;;;;;;;-141.50;100.00;63355.56;5036932;28;20084;-81
2024/03/12 10:11:07;;;;;;;6.88;3.20;;;;;;;-141.50;100.00;63355.56;5031429;28;20081;-82
2024/03/12 10:13:40;;;;;;;6.90;3.25;;;;;;;-141.50;100.00;63355.56;5031082;28;20075;-81
2024/03/12 10:16:07;;;;;;;8.75;3.67;;;;;;;-141.50;100.00;63355.56;5006869;28;20281;-81
2024/03/12 10:18:34;;;;;;;8.82;3.40;;;;;;;-141.50;100.00;63355.56;5037653;28;20084;-82
2024/03/12 10:21:02;;;;;;;7.13;4.05;;;;;;;-141.50;100.00;63355.56;5012416;28;20049;-81
2024/03/12 10:23:31;;;;;;;8.55;3.55;;;;;;;-141.50;100.00;63355.56;5025248;28;20053;-81
2024/03/12 10:26:09;;;;;;;6.78;3.67;;;;;;;-141.50;100.00;63355.56;5024658;28;20526;-80
2024/03/12 10:28:37;;;;;;;6.00;3.40;;;;;;;-141.50;100.00;63355.56;5028399;28;20104;-81
2024/03/12 10:31:11;;;;;;;7.68;3.78;;;;;;;-141.50;100.00;63355.56;5030260;28;20092;-81
2024/03/12 10:33:42;;;;;;;6.57;3.63;;;;;;;-141.50;100.00;63355.56;5034957;28;20057;-81
2024/03/12 10:36:10;;;;;;;7.90;3.20;;;;;;;-141.50;100.00;63355.56;5034507;28;20585;-80
2024/03/12 10:38:39;;;;;;;6.07;3.65;;;;;;;-141.50;100.00;63355.56;5022393;28;20116;-80
2024/03/12 10:41:20;;;;;;;6.07;3.55;;;;;;;-141.50;100.00;63355.56;5023595;28;20064;-81
2024/03/12 10:43:50;;;;;;;9.40;3.42;;;;;;;-141.50;100.00;63355.56;5015994;28;20077;-79
2024/03/12 10:46:19;;;;;;;7.82;3.47;;;;;;;-141.50;100.00;63355.56;5026099;28;20065;-81
2024/03/12 10:48:50;;;;;;;12.93;4.00;;;;;;;-141.50;100.00;63355.56;5033974;28;20068;-81
2024/03/12 10:51:19;;;;;;;6.25;3.60;;;;;;;-141.50;100.00;63355.56;5024272;28;20415;-83
2024/03/12 10:53:53;;;;;;;7.63;3.78;;;;;;;-141.50;100.00;63355.56;5017905;28;20586;-79
2024/03/12 10:56:21;;;;;;;7.57;3.38;;;;;;;-141.50;100.00;63355.56;4998380;28;20049;-81
2024/03/12 10:58:48;;;;;;;7.00;3.65;;;;;;;-141.50;100.00;63355.56;5027253;28;20135;-79
2024/03/12 11:01:19;;;;;;;5.88;3.38;;;;;;;-141.50;100.00;63355.56;5012344;28;20113;-82
2024/03/12 11:03:56;;;;;;;5.85;3.45;;;;;;;-141.50;100.00;63355.56;5004483;28;20054;-80
2024/03/12 11:06:25;;;;;;;6.18;3.40;;;;;;;-141.50;100.00;63355.56;5021102;28;20583;-81
2024/03/12 11:08:52;;;;;;;7.35;3.63;;;;;;;-141.50;100.00;63355.56;5022449;28;20113;-81
2024/03/12 11:11:18;;;;;;;9.57;3.67;;;;;;;-141.50;100.00;63355.56;5020689;28;20076;-80
2024/03/12 11:13:48;;;;;;;7.63;3.63;;;;;;;-141.50;100.00;63355.56;5029419;28;20063;-80
2024/03/12 11:16:19;;;;;;;8.23;3.60;;;;;;;-141.50;100.00;63355.56;5025904;28;20136;-81
2024/03/12 11:18:48;;;;;;;6.65;3.28;;;;;;;-141.50;100.00;63355.56;5022436;28;20454;-81
2024/03/12 11:21:23;;;;;;;5.93;3.53;;;;;;;-141.50;100.00;63355.56;5020049;28;20046;-79